Time;durP1;ratioP1;P1;durP2;ratioP2;P2;SDS_P1;SDS_P2;PMS_P1;PMS_P2;Temp;Humidity;BMP_temperature;BMP_pressure;BME280_temperature;BME280_humidity;BME280_pressure;Samples;Min_cycle;Max_cycle;Signal;HPM_P1;HPM_P2
2021/07/17 00:00:41;;;;;;;14.70;6.22;;;18.90;99.90;;;;;;5032097;28;20423;-37
2021/07/17 00:03:07;;;;;;;14.63;6.35;;;18.90;99.90;;;;;;5027441;28;20029;-37
2021/07/17 00:05:33;;;;;;;17.02;6.63;;;18.90;99.90;;;;;;5032787;28;20025;-37
2021/07/17 00:07:59;;;;;;;15.45;6.13;;;18.90;99.90;;;;;;5026648;28;20021;-38
2021/07/17 00:10:31;;;;;;;18.42;7.07;;;18.90;99.90;;;;;;5012583;28;20401;-37
2021/07/17 00:12:56;;;;;;;15.80;6.60;;;18.80;99.90;;;;;;5022783;28;20415;-38
2021/07/17 00:15:24;;;;;;;12.93;6.38;;;18.80;99.90;;;;;;5013782;28;20022;-37
2021/07/17 00:17:50;;;;;;;17.38;6.57;;;18.80;99.90;;;;;;5020272;28;20460;-38
2021/07/17 00:20:16;;;;;;;15.35;7.68;;;18.80;99.90;;;;;;5016606;28;20021;-37
2021/07/17 00:22:42;;;;;;;17.75;7.20;;;18.80;99.90;;;;;;5016389;28;20034;-38
2021/07/17 00:25:11;;;;;;;13.52;6.25;;;18.70;99.90;;;;;;5019835;28;20093;-38
2021/07/17 00:27:37;;;;;;;17.77;6.55;;;18.60;99.90;;;;;;5014822;28;20407;-37
2021/07/17 00:30:04;;;;;;;20.80;7.72;;;18.70;99.90;;;;;;5021448;28;20493;-37
2021/07/17 00:32:30;;;;;;;19.33;8.13;;;18.70;99.90;;;;;;5013175;28;20032;-37
2021/07/17 00:34:55;;;;;;;21.25;7.18;;;18.70;99.90;;;;;;5023162;28;20026;-37
2021/07/17 00:37:22;;;;;;;18.08;6.68;;;18.70;99.90;;;;;;5012339;28;20405;-37
2021/07/17 00:39:48;;;;;;;17.05;7.10;;;18.70;99.90;;;;;;5023880;28;20396;-38
2021/07/17 00:42:14;;;;;;;17.23;7.57;;;18.70;99.90;;;;;;5012166;28;20518;-37
2021/07/17 00:44:40;;;;;;;16.42;7.13;;;18.70;99.90;;;;;;5017797;28;20113;-38
2021/07/17 00:47:07;;;;;;;17.95;7.45;;;18.80;99.90;;;;;;5032233;28;20112;-38
2021/07/17 00:49:32;;;;;;;19.83;6.90;;;18.80;99.90;;;;;;5018557;28;20100;-37
2021/07/17 00:51:58;;;;;;;13.25;6.25;;;18.80;99.90;;;;;;5031305;28;20170;-37
2021/07/17 00:54:27;;;;;;;18.65;6.43;;;18.80;99.90;;;;;;5020506;28;20026;-38
2021/07/17 00:56:54;;;;;;;18.73;6.60;;;18.80;99.90;;;;;;5031066;28;20037;-38
2021/07/17 00:59:23;;;;;;;16.10;6.85;;;18.70;99.90;;;;;;5021490;28;20469;-38
2021/07/17 01:01:51;;;;;;;22.52;7.50;;;18.70;99.90;;;;;;5028530;28;20499;-38
2021/07/17 01:04:28;;;;;;;16.30;7.13;;;18.70;99.90;;;;;;5012033;28;20076;-37
2021/07/17 01:06:56;;;;;;;19.42;7.35;;;18.70;99.90;;;;;;5014341;28;20425;-37
2021/07/17 01:09:21;;;;;;;19.90;7.43;;;18.60;99.90;;;;;;5010676;28;20022;-37
2021/07/17 01:11:47;;;;;;;15.93;7.30;;;18.60;99.90;;;;;;5010607;28;20034;-38
2021/07/17 01:14:13;;;;;;;18.50;7.78;;;18.60;99.90;;;;;;5003186;28;20084;-38
2021/07/17 01:16:41;;;;;;;17.63;7.32;;;18.50;99.90;;;;;;5019376;28;20508;-39
2021/07/17 01:19:10;;;;;;;15.93;7.05;;;18.50;99.90;;;;;;5028034;28;20017;-39
2021/07/17 01:21:36;;;;;;;17.40;7.07;;;18.50;99.90;;;;;;5019636;28;20120;-38
2021/07/17 01:24:02;;;;;;;16.55;6.65;;;18.50;99.90;;;;;;5009279;28;20097;-37
2021/07/17 01:26:28;;;;;;;17.27;7.57;;;18.40;99.90;;;;;;5019570;28;20029;-37
2021/07/17 01:28:54;;;;;;;19.00;7.88;;;18.50;99.90;;;;;;5008438;28;20029;-37
2021/07/17 01:31:20;;;;;;;14.57;6.60;;;18.40;99.90;;;;;;5020154;28;20249;-37
2021/07/17 01:33:46;;;;;;;17.35;6.85;;;18.40;99.90;;;;;;5008523;28;20025;-37
2021/07/17 01:36:12;;;;;;;14.52;6.47;;;18.40;99.90;;;;;;5020918;28;20363;-37
2021/07/17 01:38:38;;;;;;;18.55;7.05;;;18.40;99.90;;;;;;5005380;28;20582;-38
2021/07/17 01:41:04;;;;;;;18.60;6.97;;;18.40;99.90;;;;;;5017949;28;20033;-37
2021/07/17 01:43:30;;;;;;;14.15;6.70;;;18.40;99.90;;;;;;5011043;28;20026;-37
2021/07/17 01:45:59;;;;;;;14.85;6.55;;;18.40;99.90;;;;;;5020245;28;20117;-38
2021/07/17 01:48:25;;;;;;;16.55;7.05;;;18.40;99.90;;;;;;5011546;28;20030;-38
2021/07/17 01:50:52;;;;;;;14.02;6.70;;;18.50;99.90;;;;;;5018232;28;20056;-37
2021/07/17 01:53:19;;;;;;;16.77;7.50;;;18.50;99.90;;;;;;5016036;28;20021;-37
2021/07/17 01:55:45;;;;;;;15.98;6.75;;;18.40;99.90;;;;;;5014941;28;20304;-38
2021/07/17 01:58:11;;;;;;;17.25;6.65;;;18.40;99.90;;;;;;5018323;28;20052;-38
2021/07/17 02:00:37;;;;;;;13.77;6.65;;;18.40;99.90;;;;;;5012204;28;20085;-37
2021/07/17 02:03:07;;;;;;;18.63;6.93;;;18.30;99.90;;;;;;5028731;28;20079;-37
2021/07/17 02:05:33;;;;;;;15.25;6.43;;;18.30;99.90;;;;;;5025888;28;20017;-38
2021/07/17 02:07:59;;;;;;;17.75;7.40;;;18.30;99.90;;;;;;5017307;28;20028;-37
2021/07/17 02:10:30;;;;;;;13.77;6.10;;;18.30;99.90;;;;;;5026201;28;20029;-37
2021/07/17 02:13:13;;;;;;;14.98;6.55;;;18.30;99.90;;;;;;5017165;28;20025;-37
2021/07/17 02:15:47;;;;;;;13.38;6.38;;;18.30;99.90;;;;;;5026122;28;20767;-37
2021/07/17 02:18:23;;;;;;;13.50;6.18;;;18.30;99.90;;;;;;5018092;28;20026;-37
2021/07/17 02:20:49;;;;;;;16.98;6.57;;;18.30;99.90;;;;;;5028799;28;20027;-39
2021/07/17 02:23:15;;;;;;;15.63;6.60;;;18.20;99.90;;;;;;5018201;28;20029;-37
2021/07/17 02:25:40;;;;;;;17.20;6.38;;;18.20;99.90;;;;;;5030251;28;20075;-37
2021/07/17 02:28:06;;;;;;;13.38;6.10;;;18.30;99.90;;;;;;5017445;28;20465;-38
2021/07/17 02:30:32;;;;;;;16.20;6.88;;;18.30;99.90;;;;;;5028453;28;20034;-37
2021/07/17 02:32:58;;;;;;;21.15;6.38;;;18.30;99.90;;;;;;5017398;28;20045;-37
2021/07/17 02:35:24;;;;;;;11.73;6.03;;;18.30;99.90;;;;;;5029279;28;20037;-37
2021/07/17 02:37:50;;;;;;;12.88;6.30;;;18.30;99.90;;;;;;5018262;28;20381;-37
2021/07/17 02:40:16;;;;;;;18.48;6.63;;;18.30;99.90;;;;;;5027876;28;20026;-37
2021/07/17 02:42:41;;;;;;;16.80;6.32;;;18.30;99.90;;;;;;5021023;28;20037;-37
2021/07/17 02:45:08;;;;;;;16.95;7.00;;;18.30;99.90;;;;;;5025366;28;20453;-37
2021/07/17 02:47:34;;;;;;;20.70;9.13;;;18.30;99.90;;;;;;5023227;28;20053;-37
2021/07/17 02:50:00;;;;;;;25.65;9.80;;;18.20;99.90;;;;;;5022765;28;20020;-38
2021/07/17 02:52:26;;;;;;;18.55;7.72;;;18.20;99.90;;;;;;5025526;28;20333;-37
2021/07/17 02:54:51;;;;;;;19.63;7.25;;;18.20;99.90;;;;;;5020326;28;20017;-37
2021/07/17 02:57:17;;;;;;;16.02;6.28;;;18.20;99.90;;;;;;5026036;28;20024;-37
2021/07/17 02:59:42;;;;;;;18.00;7.65;;;18.20;99.90;;;;;;5018183;28;20044;-37
2021/07/17 03:02:08;;;;;;;20.08;7.22;;;18.10;99.90;;;;;;5028107;28;20060;-37
2021/07/17 03:04:33;;;;;;;24.15;6.90;;;18.10;99.90;;;;;;5017291;28;20016;-38
2021/07/17 03:06:59;;;;;;;15.02;5.93;;;18.00;99.90;;;;;;5029878;28;20088;-37
2021/07/17 03:09:25;;;;;;;19.35;7.00;;;18.00;99.90;;;;;;5015987;28;20116;-37
2021/07/17 03:11:50;;;;;;;20.63;6.80;;;18.00;99.90;;;;;;5029327;28;20350;-37
2021/07/17 03:14:16;;;;;;;16.27;7.43;;;17.90;99.90;;;;;;5016916;28;20444;-37
2021/07/17 03:16:42;;;;;;;18.45;7.25;;;17.90;99.90;;;;;;5028936;28;20029;-37
2021/07/17 03:19:08;;;;;;;13.70;6.55;;;17.90;99.90;;;;;;5018846;28;20028;-37
2021/07/17 03:21:34;;;;;;;16.17;6.72;;;17.90;99.90;;;;;;5025868;28;20025;-37
2021/07/17 03:24:00;;;;;;;19.35;6.93;;;17.90;99.90;;;;;;5022066;28;20458;-38
2021/07/17 03:26:25;;;;;;;19.13;6.57;;;17.80;99.90;;;;;;5022853;28;20030;-37
2021/07/17 03:28:51;;;;;;;17.42;7.40;;;17.80;99.90;;;;;;5024250;28;20049;-37
2021/07/17 03:31:24;;;;;;;20.60;6.93;;;17.70;99.90;;;;;;5021721;28;20026;-38
2021/07/17 03:33:50;;;;;;;20.90;6.97;;;17.70;99.90;;;;;;5025300;28;20048;-37
2021/07/17 03:36:15;;;;;;;19.13;6.90;;;17.60;99.90;;;;;;5020588;28;20461;-37
2021/07/17 03:38:41;;;;;;;19.10;7.35;;;17.50;99.90;;;;;;5027359;28;20144;-37
2021/07/17 03:41:06;;;;;;;20.35;7.70;;;17.50;99.90;;;;;;5017801;28;20377;-37
2021/07/17 03:43:32;;;;;;;19.67;7.22;;;17.40;99.90;;;;;;5026555;28;20022;-37
2021/07/17 03:46:00;;;;;;;13.13;6.13;;;17.40;99.90;;;;;;5018389;28;20040;-37
2021/07/17 03:48:25;;;;;;;16.73;6.68;;;17.30;99.90;;;;;;5027245;28;20087;-37
2021/07/17 03:50:51;;;;;;;16.25;6.13;;;17.30;99.90;;;;;;5016556;28;20026;-37
2021/07/17 03:53:17;;;;;;;17.40;7.70;;;17.20;99.90;;;;;;5028628;28;20199;-37
2021/07/17 03:55:42;;;;;;;17.83;7.15;;;17.10;99.90;;;;;;5015792;28;20029;-37
2021/07/17 03:58:08;;;;;;;17.88;6.75;;;17.00;99.90;;;;;;5029310;28;20025;-37
2021/07/17 04:00:33;;;;;;;25.60;7.90;;;17.00;99.90;;;;;;5017089;28;20501;-37
2021/07/17 04:03:03;;;;;;;15.35;7.03;;;17.00;99.90;;;;;;5020367;28;20469;-37
2021/07/17 04:05:29;;;;;;;15.48;6.32;;;17.00;99.90;;;;;;5016395;28;20053;-37
2021/07/17 04:07:54;;;;;;;17.88;6.85;;;17.00;99.90;;;;;;5012891;28;20103;-37
2021/07/17 04:10:20;;;;;;;18.85;6.47;;;17.00;99.90;;;;;;5014319;28;20059;-37
2021/07/17 04:12:46;;;;;;;17.30;7.03;;;17.00;99.90;;;;;;5015593;28;20105;-38
2021/07/17 04:15:12;;;;;;;20.13;7.57;;;17.00;99.90;;;;;;5012225;28;20429;-37
2021/07/17 04:17:38;;;;;;;18.35;6.68;;;17.00;99.90;;;;;;5017444;28;20103;-37
2021/07/17 04:20:05;;;;;;;17.75;7.85;;;17.10;99.90;;;;;;5010370;28;20053;-37
2021/07/17 04:22:30;;;;;;;19.27;7.50;;;17.00;99.90;;;;;;5022358;28;20389;-38
2021/07/17 04:24:56;;;;;;;22.02;8.10;;;17.00;99.90;;;;;;5013987;28;20105;-38
2021/07/17 04:27:22;;;;;;;22.38;7.85;;;17.10;99.90;;;;;;5022909;28;20030;-37
2021/07/17 04:29:48;;;;;;;21.08;8.05;;;17.10;99.90;;;;;;5012960;28;20446;-37
2021/07/17 04:32:13;;;;;;;30.05;9.35;;;17.10;99.90;;;;;;5024290;28;20458;-37
2021/07/17 04:34:39;;;;;;;17.13;6.97;;;17.10;99.90;;;;;;5011687;28;20061;-37
2021/07/17 04:37:05;;;;;;;27.50;8.95;;;17.10;99.90;;;;;;5024065;28;20021;-37
2021/07/17 04:39:30;;;;;;;20.00;7.72;;;17.10;99.90;;;;;;5011442;28;20554;-37
2021/07/17 04:41:56;;;;;;;22.38;8.50;;;17.10;99.90;;;;;;5022450;28;20033;-37
2021/07/17 04:44:22;;;;;;;24.92;8.77;;;17.10;99.90;;;;;;5012307;28;20030;-37
2021/07/17 04:46:47;;;;;;;21.60;8.25;;;17.10;99.90;;;;;;5020205;28;20025;-37
2021/07/17 04:49:13;;;;;;;19.40;7.55;;;17.10;99.90;;;;;;5015806;28;20048;-37
2021/07/17 04:51:39;;;;;;;23.10;8.57;;;17.10;99.90;;;;;;5015973;28;20056;-37
2021/07/17 04:54:04;;;;;;;17.00;8.07;;;17.10;99.90;;;;;;5019652;28;20025;-38
2021/07/17 04:56:30;;;;;;;23.98;9.75;;;17.10;99.90;;;;;;5012979;28;20045;-37
2021/07/17 04:58:55;;;;;;;19.40;9.68;;;17.10;99.90;;;;;;5022371;28;20101;-37
2021/07/17 05:01:21;;;;;;;25.58;8.95;;;17.10;99.90;;;;;;5012479;28;20045;-37
2021/07/17 05:03:47;;;;;;;25.75;9.20;;;17.20;99.90;;;;;;5016658;28;20463;-38
2021/07/17 05:06:13;;;;;;;17.88;7.78;;;17.10;99.90;;;;;;5013443;28;20412;-38
2021/07/17 05:08:39;;;;;;;22.90;9.25;;;17.10;99.90;;;;;;5021888;28;20458;-37
2021/07/17 05:11:04;;;;;;;23.90;8.98;;;17.20;99.90;;;;;;5011068;28;20025;-37
2021/07/17 05:13:30;;;;;;;23.42;8.52;;;17.30;99.90;;;;;;5023330;28;20021;-37
2021/07/17 05:15:55;;;;;;;15.38;8.05;;;17.30;99.90;;;;;;5011647;28;20033;-38
2021/07/17 05:18:21;;;;;;;23.75;8.32;;;17.30;99.90;;;;;;5022787;28;20496;-37
2021/07/17 05:20:48;;;;;;;21.25;8.15;;;17.40;99.90;;;;;;5011931;28;20117;-38
2021/07/17 05:23:14;;;;;;;14.55;7.60;;;17.50;99.90;;;;;;5021000;28;20025;-37
2021/07/17 05:25:40;;;;;;;18.20;8.38;;;17.60;99.90;;;;;;5012824;28;20063;-38
2021/07/17 05:28:06;;;;;;;17.15;7.78;;;17.60;99.90;;;;;;5018972;28;20101;-39
2021/07/17 05:30:31;;;;;;;20.77;8.38;;;17.70;99.90;;;;;;5015926;28;20026;-38
2021/07/17 05:32:57;;;;;;;16.30;7.95;;;17.80;99.90;;;;;;5014560;28;20534;-37
2021/07/17 05:35:22;;;;;;;15.45;8.20;;;17.80;99.90;;;;;;5018920;28;20022;-38
2021/07/17 05:37:48;;;;;;;20.50;8.43;;;17.90;99.90;;;;;;5012791;28;20025;-38
2021/07/17 05:40:14;;;;;;;18.98;8.82;;;18.00;99.90;;;;;;5021339;28;20014;-37
2021/07/17 05:42:40;;;;;;;19.70;8.48;;;17.90;99.90;;;;;;5011929;28;20036;-38
2021/07/17 05:45:06;;;;;;;19.55;8.50;;;18.00;99.90;;;;;;5021616;28;20022;-37
2021/07/17 05:47:32;;;;;;;19.27;8.40;;;17.90;99.90;;;;;;5009914;28;20026;-38
2021/07/17 05:49:57;;;;;;;16.48;7.88;;;18.00;99.90;;;;;;5023329;28;20029;-37
2021/07/17 05:52:23;;;;;;;19.05;8.07;;;18.00;99.90;;;;;;5010823;28;20022;-37
2021/07/17 05:54:49;;;;;;;20.08;7.90;;;18.10;99.90;;;;;;5022567;28;20018;-37
2021/07/17 05:57:14;;;;;;;18.33;8.43;;;18.10;99.90;;;;;;5011521;28;20365;-38
2021/07/17 05:59:40;;;;;;;15.45;7.25;;;18.10;99.90;;;;;;5020548;28;20392;-37
2021/07/17 06:02:06;;;;;;;18.13;7.47;;;18.20;99.90;;;;;;5000818;28;20573;-37
2021/07/17 06:04:32;;;;;;;13.45;6.60;;;18.30;99.90;;;;;;5018843;28;20354;-37
2021/07/17 06:06:58;;;;;;;16.42;6.85;;;18.40;99.90;;;;;;5026918;28;20056;-37
2021/07/17 06:09:24;;;;;;;16.60;6.18;;;18.50;99.90;;;;;;5023269;28;20054;-38
2021/07/17 06:11:50;;;;;;;18.02;7.03;;;18.60;99.90;;;;;;5024621;28;20099;-38
2021/07/17 06:14:16;;;;;;;15.88;7.50;;;18.60;99.90;;;;;;5013199;28;20030;-37
2021/07/17 06:16:42;;;;;;;15.48;6.13;;;18.50;99.90;;;;;;5010560;28;20030;-38
2021/07/17 06:19:07;;;;;;;16.65;6.90;;;18.50;99.90;;;;;;5027937;28;20105;-37
2021/07/17 06:21:33;;;;;;;13.95;6.15;;;18.50;99.90;;;;;;5016770;28;20029;-37
2021/07/17 06:23:59;;;;;;;13.25;5.60;;;18.50;99.90;;;;;;5028209;28;20028;-37
2021/07/17 06:26:25;;;;;;;16.75;6.80;;;18.50;99.90;;;;;;5017173;28;20021;-37
2021/07/17 06:28:51;;;;;;;13.45;5.90;;;18.50;99.90;;;;;;5028277;28;20116;-37
2021/07/17 06:31:19;;;;;;;14.90;5.95;;;18.50;99.90;;;;;;5015584;28;20113;-38
2021/07/17 06:33:45;;;;;;;16.75;6.20;;;18.60;99.90;;;;;;5028873;28;20041;-38
2021/07/17 06:36:10;;;;;;;15.95;5.80;;;18.60;99.90;;;;;;5015898;28;20076;-38
2021/07/17 06:38:36;;;;;;;11.23;5.43;;;18.60;99.90;;;;;;5027815;28;20120;-37
2021/07/17 06:41:02;;;;;;;10.05;4.38;;;18.60;99.90;;;;;;5017299;28;20021;-37
2021/07/17 06:43:28;;;;;;;9.73;4.70;;;18.70;99.90;;;;;;5026886;28;20156;-37
2021/07/17 06:45:54;;;;;;;8.60;4.25;;;18.70;99.90;;;;;;5019445;28;20022;-37
2021/07/17 06:48:19;;;;;;;9.57;4.65;;;18.70;99.90;;;;;;5025033;28;20037;-37
2021/07/17 06:50:45;;;;;;;11.60;4.50;;;18.80;99.90;;;;;;5020648;28;20115;-37
2021/07/17 06:53:10;;;;;;;7.43;3.78;;;18.80;99.90;;;;;;5021468;28;20025;-37
2021/07/17 06:55:37;;;;;;;12.07;4.55;;;18.80;99.90;;;;;;5023759;28;20017;-37
2021/07/17 06:58:03;;;;;;;9.50;4.00;;;18.70;99.90;;;;;;5004727;28;20030;-37
2021/07/17 07:00:30;;;;;;;13.55;4.82;;;18.80;99.90;;;;;;4998631;28;20018;-37
2021/07/17 07:02:56;;;;;;;10.68;4.38;;;18.80;99.90;;;;;;5003309;28;20405;-37
2021/07/17 07:05:22;;;;;;;10.77;4.35;;;18.80;99.90;;;;;;5010688;28;20121;-37
2021/07/17 07:07:48;;;;;;;8.75;4.28;;;18.80;99.90;;;;;;5020573;28;20022;-38
2021/07/17 07:10:13;;;;;;;11.00;4.35;;;18.80;99.90;;;;;;5008204;28;20424;-37
2021/07/17 07:12:39;;;;;;;9.88;4.60;;;18.80;99.90;;;;;;5013652;28;20025;-37
2021/07/17 07:15:07;;;;;;;12.48;4.38;;;18.80;99.90;;;;;;5029000;28;20052;-37
2021/07/17 07:17:33;;;;;;;11.68;4.60;;;18.80;99.90;;;;;;5015157;28;20109;-37
2021/07/17 07:19:58;;;;;;;12.70;4.68;;;18.90;99.90;;;;;;5028479;28;20547;-37
2021/07/17 07:22:24;;;;;;;11.05;4.40;;;18.90;99.90;;;;;;5010579;28;20042;-37
2021/07/17 07:24:50;;;;;;;10.50;4.78;;;19.00;99.90;;;;;;5005165;28;20096;-37
2021/07/17 07:27:16;;;;;;;9.90;3.63;;;19.00;99.90;;;;;;5005872;28;20418;-37
2021/07/17 07:29:41;;;;;;;7.90;3.75;;;19.00;99.90;;;;;;5006859;28;20564;-37
2021/07/17 07:32:07;;;;;;;9.15;4.28;;;19.10;99.90;;;;;;5007811;28;20033;-37
2021/07/17 07:34:33;;;;;;;10.45;3.80;;;19.10;99.90;;;;;;5006343;28;20101;-37
2021/07/17 07:36:58;;;;;;;11.50;4.57;;;19.20;99.90;;;;;;5011082;28;20428;-37
2021/07/17 07:39:24;;;;;;;10.35;4.32;;;19.30;99.90;;;;;;5015490;28;20014;-37
2021/07/17 07:41:50;;;;;;;13.73;4.65;;;19.30;99.90;;;;;;5009866;28;20100;-37
2021/07/17 07:44:15;;;;;;;10.93;4.82;;;19.40;99.90;;;;;;5020104;28;20072;-37
2021/07/17 07:46:41;;;;;;;8.90;3.97;;;19.40;99.90;;;;;;5004545;28;20480;-37
2021/07/17 07:49:07;;;;;;;8.43;3.63;;;19.40;99.90;;;;;;5015544;28;20022;-37
2021/07/17 07:51:33;;;;;;;9.85;3.60;;;19.50;99.90;;;;;;5001186;28;20057;-37
2021/07/17 07:53:59;;;;;;;10.02;3.70;;;19.50;99.90;;;;;;5006473;28;20037;-37
2021/07/17 07:56:25;;;;;;;12.20;4.07;;;19.60;99.90;;;;;;5031290;28;20037;-38
2021/07/17 07:58:51;;;;;;;11.70;3.50;;;19.60;99.90;;;;;;5019173;28;20018;-38
2021/07/17 08:01:16;;;;;;;9.20;3.80;;;19.60;99.90;;;;;;5025125;28;20137;-37
2021/07/17 08:03:42;;;;;;;11.32;3.88;;;19.70;99.90;;;;;;5014323;28;20497;-37
2021/07/17 08:06:08;;;;;;;9.15;4.10;;;19.70;99.90;;;;;;5016345;28;20023;-37
2021/07/17 08:08:37;;;;;;;5.93;3.08;;;19.80;99.90;;;;;;5006752;28;20417;-37
2021/07/17 08:11:02;;;;;;;8.13;3.13;;;19.80;99.90;;;;;;5005701;28;20378;-37
2021/07/17 08:13:28;;;;;;;8.70;3.70;;;19.90;99.90;;;;;;5007250;28;20469;-37
2021/07/17 08:15:57;;;;;;;8.57;3.30;;;19.90;99.90;;;;;;5018827;28;20037;-37
2021/07/17 08:18:23;;;;;;;10.23;3.28;;;20.00;99.90;;;;;;5016054;28;20033;-38
2021/07/17 08:20:49;;;;;;;5.90;2.88;;;20.10;99.90;;;;;;5020205;28;20026;-37
2021/07/17 08:23:14;;;;;;;7.55;2.97;;;20.10;99.90;;;;;;5001634;28;20026;-38
2021/07/17 08:25:40;;;;;;;7.18;2.88;;;20.10;99.90;;;;;;5022875;28;20018;-38
2021/07/17 08:28:05;;;;;;;8.13;3.20;;;20.20;99.90;;;;;;5011054;28;20366;-38
2021/07/17 08:30:35;;;;;;;4.75;2.22;;;20.20;99.90;;;;;;5022712;28;20053;-39
2021/07/17 08:33:02;;;;;;;9.70;2.45;;;20.30;99.90;;;;;;5012018;28;20111;-37
2021/07/17 08:35:27;;;;;;;4.78;2.47;;;20.30;99.90;;;;;;5022617;28;20491;-38
2021/07/17 08:37:53;;;;;;;4.03;2.40;;;20.40;99.90;;;;;;5011818;28;20014;-38
2021/07/17 08:40:19;;;;;;;4.15;2.17;;;20.40;99.90;;;;;;5024168;28;20021;-38
2021/07/17 08:42:47;;;;;;;6.60;2.65;;;20.50;99.90;;;;;;5010133;28;20038;-38
2021/07/17 08:45:13;;;;;;;6.43;2.40;;;20.60;99.90;;;;;;5023403;28;20530;-38
2021/07/17 08:47:43;;;;;;;6.18;2.63;;;20.60;99.90;;;;;;5011394;28;20030;-37
2021/07/17 08:50:23;;;;;;;6.18;2.05;;;20.70;99.90;;;;;;5021084;28;20021;-38
2021/07/17 08:52:57;;;;;;;5.68;2.03;;;20.70;99.90;;;;;;5010600;28;20084;-38
2021/07/17 08:55:25;;;;;;;6.55;2.30;;;20.80;99.90;;;;;;5020838;28;20380;-37
2021/07/17 08:57:51;;;;;;;5.63;2.22;;;20.80;99.90;;;;;;5011240;28;20026;-37
2021/07/17 09:00:18;;;;;;;8.45;2.45;;;20.90;99.90;;;;;;5018958;28;20366;-38
2021/07/17 09:02:47;;;;;;;7.57;2.75;;;20.90;99.90;;;;;;5015749;28;20135;-37
2021/07/17 09:05:18;;;;;;;6.05;2.05;;;20.90;99.90;;;;;;5024645;28;20026;-38
2021/07/17 09:07:44;;;;;;;5.78;1.92;;;21.00;99.90;;;;;;5024616;28;20025;-38
2021/07/17 09:10:40;;;;;;;6.28;2.58;;;21.10;99.90;;;;;;5007962;28;20104;-38
2021/07/17 09:13:12;;;;;;;5.82;2.30;;;21.10;99.40;;;;;;4999440;28;20022;-37
2021/07/17 09:15:59;;;;;;;3.90;2.10;;;21.20;99.30;;;;;;5004583;28;20036;-38
2021/07/17 09:18:27;;;;;;;3.78;2.00;;;21.30;99.40;;;;;;4982078;28;20046;-37
2021/07/17 09:21:07;;;;;;;4.93;1.88;;;21.30;99.40;;;;;;5009696;28;20447;-38
2021/07/17 09:23:36;;;;;;;4.00;1.90;;;21.30;99.10;;;;;;5008151;28;20049;-42
2021/07/17 09:26:15;;;;;;;6.15;2.08;;;21.40;99.50;;;;;;5003236;28;20021;-37
2021/07/17 09:28:41;;;;;;;4.30;1.67;;;21.40;99.50;;;;;;5003021;28;20416;-38
2021/07/17 09:31:07;;;;;;;4.40;1.60;;;21.50;99.40;;;;;;5014109;28;20013;-38
2021/07/17 09:33:35;;;;;;;2.35;1.60;;;21.60;99.30;;;;;;5028190;28;20021;-37
2021/07/17 09:36:01;;;;;;;3.17;1.40;;;21.60;99.30;;;;;;5025533;28;20036;-38
2021/07/17 09:38:32;;;;;;;4.13;1.77;;;21.60;98.70;;;;;;4998755;28;20014;-38
2021/07/17 09:41:03;;;;;;;4.47;1.95;;;21.70;98.50;;;;;;5006457;28;20025;-38
2021/07/17 09:43:37;;;;;;;4.90;1.83;;;21.70;98.50;;;;;;4994038;28;20490;-38
2021/07/17 09:46:26;;;;;;;5.47;1.73;;;21.80;98.40;;;;;;5002049;28;20064;-37
2021/07/17 09:48:58;;;;;;;3.45;1.63;;;21.80;97.90;;;;;;5001188;28;20482;-38
2021/07/17 09:51:28;;;;;;;5.00;1.33;;;21.90;97.60;;;;;;5007109;28;20022;-37
2021/07/17 09:53:57;;;;;;;4.00;1.48;;;21.90;97.30;;;;;;5000071;28;20064;-38
2021/07/17 09:56:25;;;;;;;2.63;1.30;;;21.90;97.70;;;;;;5003917;28;20014;-38
2021/07/17 09:58:58;;;;;;;2.88;1.60;;;22.00;97.90;;;;;;5020297;28;20049;-38
2021/07/17 10:01:39;;;;;;;3.33;1.50;;;22.10;97.80;;;;;;5010373;28;20037;-38
2021/07/17 10:04:13;;;;;;;3.88;1.48;;;22.10;97.10;;;;;;5013856;28;20029;-38
2021/07/17 10:07:04;;;;;;;2.50;1.20;;;22.20;97.20;;;;;;5028179;28;20083;-38
2021/07/17 10:09:34;;;;;;;3.80;1.50;;;22.20;97.30;;;;;;5013539;28;20024;-38
2021/07/17 10:12:07;;;;;;;4.10;1.52;;;22.30;97.30;;;;;;5026694;28;20032;-38
2021/07/17 10:14:38;;;;;;;1.90;1.25;;;22.20;97.20;;;;;;5019550;28;20477;-38
2021/07/17 10:17:14;;;;;;;2.58;1.40;;;22.30;97.30;;;;;;5028052;28;20014;-38
2021/07/17 10:19:44;;;;;;;3.22;1.40;;;22.40;97.30;;;;;;5018903;28;20025;-37
2021/07/17 10:22:11;;;;;;;4.25;1.73;;;22.40;97.20;;;;;;5024910;28;20029;-37
2021/07/17 10:24:38;;;;;;;3.67;1.38;;;22.50;97.10;;;;;;5019199;28;20032;-38
2021/07/17 10:27:05;;;;;;;2.70;1.38;;;22.50;96.90;;;;;;5027133;28;21188;-38
2021/07/17 10:29:31;;;;;;;4.30;1.45;;;22.50;96.70;;;;;;5010914;28;20483;-38
2021/07/17 10:31:59;;;;;;;4.93;1.48;;;22.50;96.60;;;;;;5028845;28;20028;-38
2021/07/17 10:34:26;;;;;;;3.45;1.35;;;22.60;96.60;;;;;;5015058;28;20013;-37
2021/07/17 10:37:09;;;;;;;2.60;1.30;;;22.60;96.50;;;;;;5029588;28;20025;-38
2021/07/17 10:39:48;;;;;;;2.97;1.25;;;22.60;96.10;;;;;;5006059;28;20032;-38
2021/07/17 10:42:20;;;;;;;4.18;1.45;;;22.70;96.20;;;;;;4996628;28;20053;-37
2021/07/17 10:44:51;;;;;;;4.10;1.40;;;22.70;95.90;;;;;;5010221;28;20022;-38
2021/07/17 10:47:19;;;;;;;3.15;1.25;;;22.80;95.90;;;;;;4999898;28;20049;-38
2021/07/17 10:49:53;;;;;;;4.85;1.35;;;22.80;96.10;;;;;;5007068;28;20022;-37
2021/07/17 10:52:38;;;;;;;3.90;1.40;;;22.80;95.80;;;;;;5028511;28;20032;-38
2021/07/17 10:55:22;;;;;;;3.17;1.20;;;23.00;95.70;;;;;;5016742;28;20033;-38
2021/07/17 10:57:52;;;;;;;3.00;1.45;;;23.00;95.10;;;;;;5029136;28;20079;-38
2021/07/17 11:00:55;;;;;;;2.22;1.10;;;23.00;94.90;;;;;;5016798;28;20433;-38
2021/07/17 11:03:25;;;;;;;4.20;1.30;;;23.10;95.00;;;;;;4954732;28;20054;-38
2021/07/17 11:05:54;;;;;;;4.00;1.55;;;23.20;95.00;;;;;;4972846;28;20054;-38
2021/07/17 11:08:37;;;;;;;2.33;1.20;;;23.20;95.20;;;;;;4953871;28;20035;-38
2021/07/17 11:11:28;;;;;;;2.28;1.10;;;23.20;95.40;;;;;;4980917;28;20025;-38
2021/07/17 11:14:20;;;;;;;2.25;1.35;;;23.30;95.60;;;;;;4970090;28;20181;-38
2021/07/17 11:16:49;;;;;;;2.60;1.27;;;23.30;95.20;;;;;;4973186;28;20030;-38
2021/07/17 11:19:16;;;;;;;2.42;1.25;;;23.30;95.30;;;;;;4987871;28;20035;-38
2021/07/17 11:21:43;;;;;;;2.22;1.10;;;23.40;95.40;;;;;;4979787;28;20065;-38
2021/07/17 11:24:11;;;;;;;4.07;1.20;;;23.40;95.50;;;;;;4987835;28;20047;-38
2021/07/17 11:26:36;;;;;;;3.83;1.25;;;23.40;95.40;;;;;;4977642;28;20038;-38
2021/07/17 11:29:09;;;;;;;3.88;1.40;;;23.40;95.20;;;;;;4989026;28;20018;-38
2021/07/17 11:31:43;;;;;;;3.30;1.17;;;23.50;94.30;;;;;;4981917;28;20061;-38
2021/07/17 11:34:20;;;;;;;2.63;1.25;;;23.50;94.50;;;;;;4991260;28;20028;-38
2021/07/17 11:36:48;;;;;;;2.88;1.30;;;23.60;94.70;;;;;;4985491;28;20019;-38
2021/07/17 11:39:19;;;;;;;2.85;1.38;;;23.60;94.50;;;;;;4973822;28;20030;-38
2021/07/17 11:41:47;;;;;;;2.72;1.20;;;23.70;94.50;;;;;;4984828;28;20046;-38
2021/07/17 11:44:13;;;;;;;2.55;1.20;;;23.70;94.50;;;;;;4974595;28;20026;-38
2021/07/17 11:46:56;;;;;;;2.90;1.20;;;23.80;94.50;;;;;;4985396;28;20022;-38
2021/07/17 11:49:25;;;;;;;;;;;23.80;94.40;;;;;;4974510;28;20054;-38
2021/07/17 11:52:05;;;;;;;3.45;1.38;;;23.90;94.40;;;;;;4985281;28;20398;-38
2021/07/17 11:54:32;;;;;;;2.85;1.10;;;23.90;94.30;;;;;;4973928;28;20039;-38
2021/07/17 11:57:20;;;;;;;3.83;1.23;;;24.00;94.10;;;;;;4985788;28;20085;-38
2021/07/17 11:59:54;;;;;;;4.25;1.58;;;24.10;94.20;;;;;;4973624;28;20019;-38
2021/07/17 12:02:21;;;;;;;3.00;1.52;;;24.10;93.80;;;;;;5016350;28;20127;-38
2021/07/17 12:04:49;;;;;;;2.53;1.08;;;24.10;93.90;;;;;;5028301;28;20061;-38
2021/07/17 12:07:31;;;;;;;1.73;1.10;;;24.20;94.10;;;;;;5019158;28;20033;-38
2021/07/17 12:10:04;;;;;;;2.67;1.15;;;24.30;94.30;;;;;;5033186;28;20025;-38
2021/07/17 12:12:46;;;;;;;2.53;1.38;;;24.40;94.10;;;;;;5018230;28;20057;-38
2021/07/17 12:15:30;;;;;;;3.03;1.40;;;24.40;94.00;;;;;;5031845;28;20029;-38
2021/07/17 12:17:58;;;;;;;5.32;1.50;;;24.40;93.60;;;;;;5020260;28;20030;-38
2021/07/17 12:20:27;;;;;;;4.47;1.58;;;24.40;93.50;;;;;;5032019;28;20017;-38
2021/07/17 12:23:00;;;;;;;3.13;1.23;;;24.50;93.80;;;;;;5019143;28;20037;-38
2021/07/17 12:25:27;;;;;;;4.25;1.35;;;24.50;93.50;;;;;;5031825;28;20508;-38
2021/07/17 12:28:08;;;;;;;4.00;1.33;;;24.60;93.60;;;;;;5018734;28;20025;-38
2021/07/17 12:30:44;;;;;;;3.33;1.38;;;24.50;93.50;;;;;;5031854;28;20036;-38
2021/07/17 12:33:17;;;;;;;3.60;1.40;;;24.50;92.80;;;;;;5018806;28;20030;-38
2021/07/17 12:35:43;;;;;;;3.75;1.30;;;24.50;92.40;;;;;;5031090;28;20032;-38
2021/07/17 12:38:25;;;;;;;3.60;1.50;;;24.50;92.60;;;;;;5019021;28;20026;-38
2021/07/17 12:40:51;;;;;;;3.33;1.67;;;24.50;92.80;;;;;;5030646;28;20030;-38
2021/07/17 12:43:40;;;;;;;2.65;1.40;;;24.50;92.80;;;;;;5019223;28;20034;-38
2021/07/17 12:46:20;;;;;;;2.08;1.40;;;24.60;92.70;;;;;;5031528;28;20036;-38